sensor_id;sensor_type;location;lat;lon;timestamp;P1;durP1;ratioP1;P2;durP2;ratioP2
62654;SDS011;48717;55.556;37.816;2024-01-11T00:00:38;10.27;;;4.85;;
62654;SDS011;48717;55.556;37.816;2024-01-11T00:03:07;9.50;;;4.57;;
62654;SDS011;48717;55.556;37.816;2024-01-11T00:05:34;9.25;;;3.35;;
62654;SDS011;48717;55.556;37.816;2024-01-11T00:08:02;11.48;;;6.15;;
62654;SDS011;48717;55.556;37.816;2024-01-11T00:10:29;10.68;;;5.95;;
62654;SDS011;48717;55.556;37.816;2024-01-11T00:12:57;9.52;;;5.25;;
62654;SDS011;48717;55.556;37.816;2024-01-11T00:15:24;11.80;;;6.10;;
62654;SDS011;48717;55.556;37.816;2024-01-11T00:17:52;11.60;;;4.72;;
62654;SDS011;48717;55.556;37.816;2024-01-11T00:20:19;11.70;;;6.22;;
62654;SDS011;48717;55.556;37.816;2024-01-11T00:22:46;9.38;;;4.95;;
62654;SDS011;48717;55.556;37.816;2024-01-11T00:25:14;8.75;;;3.92;;
62654;SDS011;48717;55.556;37.816;2024-01-11T00:27:43;12.77;;;6.35;;
62654;SDS011;48717;55.556;37.816;2024-01-11T00:30:11;10.57;;;5.65;;
62654;SDS011;48717;55.556;37.816;2024-01-11T00:32:38;8.43;;;3.97;;
62654;SDS011;48717;55.556;37.816;2024-01-11T00:35:05;12.60;;;6.18;;
62654;SDS011;48717;55.556;37.816;2024-01-11T00:37:33;13.07;;;6.10;;
62654;SDS011;48717;55.556;37.816;2024-01-11T00:40:01;11.20;;;5.88;;
62654;SDS011;48717;55.556;37.816;2024-01-11T00:42:29;9.90;;;5.55;;
62654;SDS011;48717;55.556;37.816;2024-01-11T00:44:56;13.65;;;6.72;;
62654;SDS011;48717;55.556;37.816;2024-01-11T00:47:23;7.63;;;2.97;;
62654;SDS011;48717;55.556;37.816;2024-01-11T00:49:51;11.48;;;5.55;;
62654;SDS011;48717;55.556;37.816;2024-01-11T00:52:19;8.63;;;3.80;;
62654;SDS011;48717;55.556;37.816;2024-01-11T00:54:46;6.60;;;3.33;;
62654;SDS011;48717;55.556;37.816;2024-01-11T00:57:13;13.60;;;6.15;;
62654;SDS011;48717;55.556;37.816;2024-01-11T00:59:40;7.88;;;5.22;;
62654;SDS011;48717;55.556;37.816;2024-01-11T01:02:08;9.85;;;5.68;;
62654;SDS011;48717;55.556;37.816;2024-01-11T01:04:38;12.48;;;5.80;;
62654;SDS011;48717;55.556;37.816;2024-01-11T01:09:33;5.50;;;3.33;;
62654;SDS011;48717;55.556;37.816;2024-01-11T01:12:00;11.18;;;5.85;;
62654;SDS011;48717;55.556;37.816;2024-01-11T01:14:28;9.20;;;4.90;;
62654;SDS011;48717;55.556;37.816;2024-01-11T01:16:55;11.02;;;5.82;;
62654;SDS011;48717;55.556;37.816;2024-01-11T01:19:23;10.25;;;5.70;;
62654;SDS011;48717;55.556;37.816;2024-01-11T01:21:50;9.63;;;5.47;;
62654;SDS011;48717;55.556;37.816;2024-01-11T01:24:17;8.85;;;4.43;;
62654;SDS011;48717;55.556;37.816;2024-01-11T01:26:45;11.02;;;5.50;;
62654;SDS011;48717;55.556;37.816;2024-01-11T01:29:12;12.18;;;5.75;;
62654;SDS011;48717;55.556;37.816;2024-01-11T01:31:39;12.93;;;6.22;;
62654;SDS011;48717;55.556;37.816;2024-01-11T01:34:07;10.80;;;5.80;;
62654;SDS011;48717;55.556;37.816;2024-01-11T01:36:34;7.03;;;4.10;;
62654;SDS011;48717;55.556;37.816;2024-01-11T01:39:02;10.40;;;5.07;;
62654;SDS011;48717;55.556;37.816;2024-01-11T01:41:30;10.48;;;5.85;;
62654;SDS011;48717;55.556;37.816;2024-01-11T01:43:57;8.98;;;4.68;;
62654;SDS011;48717;55.556;37.816;2024-01-11T01:46:26;8.65;;;3.45;;
62654;SDS011;48717;55.556;37.816;2024-01-11T01:51:24;5.72;;;3.03;;
62654;SDS011;48717;55.556;37.816;2024-01-11T01:53:53;6.47;;;3.45;;
62654;SDS011;48717;55.556;37.816;2024-01-11T01:56:21;4.15;;;2.40;;
62654;SDS011;48717;55.556;37.816;2024-01-11T01:58:50;8.48;;;4.25;;
62654;SDS011;48717;55.556;37.816;2024-01-11T02:01:18;7.60;;;4.55;;
62654;SDS011;48717;55.556;37.816;2024-01-11T02:03:49;9.07;;;3.07;;
62654;SDS011;48717;55.556;37.816;2024-01-11T02:08:48;6.07;;;2.88;;
62654;SDS011;48717;55.556;37.816;2024-01-11T02:11:19;6.20;;;3.15;;
62654;SDS011;48717;55.556;37.816;2024-01-11T02:13:47;6.05;;;3.47;;
62654;SDS011;48717;55.556;37.816;2024-01-11T02:16:15;7.65;;;3.50;;
62654;SDS011;48717;55.556;37.816;2024-01-11T02:18:42;6.68;;;2.78;;
62654;SDS011;48717;55.556;37.816;2024-01-11T02:21:11;5.65;;;3.08;;
62654;SDS011;48717;55.556;37.816;2024-01-11T02:26:13;6.68;;;3.10;;
62654;SDS011;48717;55.556;37.816;2024-01-11T02:28:45;6.38;;;2.70;;
62654;SDS011;48717;55.556;37.816;2024-01-11T02:31:12;4.45;;;2.50;;
62654;SDS011;48717;55.556;37.816;2024-01-11T02:33:41;3.33;;;1.42;;
62654;SDS011;48717;55.556;37.816;2024-01-11T02:36:08;5.53;;;2.63;;
62654;SDS011;48717;55.556;37.816;2024-01-11T02:38:35;4.68;;;2.97;;
62654;SDS011;48717;55.556;37.816;2024-01-11T02:41:04;5.70;;;2.45;;
62654;SDS011;48717;55.556;37.816;2024-01-11T02:43:32;5.55;;;2.72;;
62654;SDS011;48717;55.556;37.816;2024-01-11T02:46:02;4.40;;;2.35;;
62654;SDS011;48717;55.556;37.816;2024-01-11T02:48:30;7.85;;;3.80;;
62654;SDS011;48717;55.556;37.816;2024-01-11T02:50:58;6.03;;;3.40;;
62654;SDS011;48717;55.556;37.816;2024-01-11T02:53:25;8.93;;;3.75;;
62654;SDS011;48717;55.556;37.816;2024-01-11T02:55:54;6.90;;;3.58;;
62654;SDS011;48717;55.556;37.816;2024-01-11T02:58:21;4.97;;;2.33;;
62654;SDS011;48717;55.556;37.816;2024-01-11T03:00:48;3.90;;;1.98;;
62654;SDS011;48717;55.556;37.816;2024-01-11T03:03:15;6.05;;;2.45;;
62654;SDS011;48717;55.556;37.816;2024-01-11T03:05:43;8.00;;;3.03;;
62654;SDS011;48717;55.556;37.816;2024-01-11T03:08:10;7.78;;;3.58;;
62654;SDS011;48717;55.556;37.816;2024-01-11T03:10:37;5.47;;;2.58;;
62654;SDS011;48717;55.556;37.816;2024-01-11T03:13:06;3.45;;;1.75;;
62654;SDS011;48717;55.556;37.816;2024-01-11T03:15:34;6.22;;;2.95;;
62654;SDS011;48717;55.556;37.816;2024-01-11T03:18:01;2.97;;;1.58;;
62654;SDS011;48717;55.556;37.816;2024-01-11T03:20:29;3.92;;;2.33;;
62654;SDS011;48717;55.556;37.816;2024-01-11T03:22:56;4.97;;;2.92;;
62654;SDS011;48717;55.556;37.816;2024-01-11T03:25:24;3.85;;;2.20;;
62654;SDS011;48717;55.556;37.816;2024-01-11T03:27:51;3.88;;;1.88;;
62654;SDS011;48717;55.556;37.816;2024-01-11T03:30:18;4.25;;;2.10;;
62654;SDS011;48717;55.556;37.816;2024-01-11T03:32:46;7.22;;;2.42;;
62654;SDS011;48717;55.556;37.816;2024-01-11T03:35:13;4.68;;;2.42;;
62654;SDS011;48717;55.556;37.816;2024-01-11T03:37:41;6.65;;;2.38;;
62654;SDS011;48717;55.556;37.816;2024-01-11T03:40:08;6.15;;;3.53;;
62654;SDS011;48717;55.556;37.816;2024-01-11T03:42:35;5.70;;;2.70;;
62654;SDS011;48717;55.556;37.816;2024-01-11T03:45:03;8.18;;;2.75;;
62654;SDS011;48717;55.556;37.816;2024-01-11T03:47:31;3.17;;;1.85;;
62654;SDS011;48717;55.556;37.816;2024-01-11T03:49:58;4.40;;;2.05;;
62654;SDS011;48717;55.556;37.816;2024-01-11T03:52:26;5.55;;;2.55;;
62654;SDS011;48717;55.556;37.816;2024-01-11T03:54:53;4.07;;;1.98;;
62654;SDS011;48717;55.556;37.816;2024-01-11T03:57:20;4.93;;;1.92;;
62654;SDS011;48717;55.556;37.816;2024-01-11T03:59:48;4.32;;;2.03;;
62654;SDS011;48717;55.556;37.816;2024-01-11T04:02:15;5.10;;;2.92;;
62654;SDS011;48717;55.556;37.816;2024-01-11T04:04:43;7.10;;;2.65;;
62654;SDS011;48717;55.556;37.816;2024-01-11T04:07:10;6.53;;;2.67;;
62654;SDS011;48717;55.556;37.816;2024-01-11T04:09:37;3.03;;;1.50;;
62654;SDS011;48717;55.556;37.816;2024-01-11T04:12:05;4.88;;;2.30;;
62654;SDS011;48717;55.556;37.816;2024-01-11T04:14:38;6.10;;;2.65;;
62654;SDS011;48717;55.556;37.816;2024-01-11T04:17:07;11.68;;;4.32;;
62654;SDS011;48717;55.556;37.816;2024-01-11T04:19:34;9.70;;;3.38;;
62654;SDS011;48717;55.556;37.816;2024-01-11T04:22:01;9.00;;;3.70;;
62654;SDS011;48717;55.556;37.816;2024-01-11T04:24:28;3.90;;;1.98;;
62654;SDS011;48717;55.556;37.816;2024-01-11T04:26:56;8.73;;;2.95;;
62654;SDS011;48717;55.556;37.816;2024-01-11T04:29:23;2.03;;;1.27;;
62654;SDS011;48717;55.556;37.816;2024-01-11T04:31:51;2.65;;;1.73;;
62654;SDS011;48717;55.556;37.816;2024-01-11T04:34:18;3.08;;;1.92;;
62654;SDS011;48717;55.556;37.816;2024-01-11T04:36:45;2.88;;;1.45;;
62654;SDS011;48717;55.556;37.816;2024-01-11T04:39:13;7.20;;;1.98;;
62654;SDS011;48717;55.556;37.816;2024-01-11T04:41:40;1.65;;;1.23;;
62654;SDS011;48717;55.556;37.816;2024-01-11T04:44:07;3.28;;;1.77;;
62654;SDS011;48717;55.556;37.816;2024-01-11T04:46:35;3.00;;;1.50;;
62654;SDS011;48717;55.556;37.816;2024-01-11T04:49:02;3.53;;;2.13;;
62654;SDS011;48717;55.556;37.816;2024-01-11T04:51:29;0.98;;;0.85;;
62654;SDS011;48717;55.556;37.816;2024-01-11T04:53:57;2.78;;;1.63;;
62654;SDS011;48717;55.556;37.816;2024-01-11T04:56:24;3.58;;;2.00;;
62654;SDS011;48717;55.556;37.816;2024-01-11T04:58:51;2.50;;;1.90;;
62654;SDS011;48717;55.556;37.816;2024-01-11T05:01:19;3.85;;;2.22;;
62654;SDS011;48717;55.556;37.816;2024-01-11T05:03:47;3.38;;;1.90;;
62654;SDS011;48717;55.556;37.816;2024-01-11T05:06:19;3.10;;;1.85;;
62654;SDS011;48717;55.556;37.816;2024-01-11T05:08:51;3.42;;;1.60;;
62654;SDS011;48717;55.556;37.816;2024-01-11T05:11:20;2.80;;;1.58;;
62654;SDS011;48717;55.556;37.816;2024-01-11T05:13:48;4.18;;;2.47;;
62654;SDS011;48717;55.556;37.816;2024-01-11T05:16:20;3.08;;;1.88;;
62654;SDS011;48717;55.556;37.816;2024-01-11T05:18:48;4.15;;;2.30;;
62654;SDS011;48717;55.556;37.816;2024-01-11T05:21:17;2.63;;;2.03;;
62654;SDS011;48717;55.556;37.816;2024-01-11T05:23:44;2.55;;;2.03;;
62654;SDS011;48717;55.556;37.816;2024-01-11T05:26:14;3.83;;;2.40;;
62654;SDS011;48717;55.556;37.816;2024-01-11T05:28:42;4.15;;;2.00;;
62654;SDS011;48717;55.556;37.816;2024-01-11T05:31:10;3.00;;;1.88;;
62654;SDS011;48717;55.556;37.816;2024-01-11T05:33:39;3.63;;;1.70;;
62654;SDS011;48717;55.556;37.816;2024-01-11T05:36:07;4.50;;;1.77;;
62654;SDS011;48717;55.556;37.816;2024-01-11T05:38:35;1.63;;;1.30;;
62654;SDS011;48717;55.556;37.816;2024-01-11T05:41:06;2.22;;;1.40;;
62654;SDS011;48717;55.556;37.816;2024-01-11T05:43:35;2.10;;;1.67;;
62654;SDS011;48717;55.556;37.816;2024-01-11T05:46:04;2.45;;;1.25;;
62654;SDS011;48717;55.556;37.816;2024-01-11T05:48:31;2.35;;;1.60;;
62654;SDS011;48717;55.556;37.816;2024-01-11T05:51:00;1.60;;;1.10;;
62654;SDS011;48717;55.556;37.816;2024-01-11T05:53:27;1.73;;;1.50;;
62654;SDS011;48717;55.556;37.816;2024-01-11T05:55:54;2.08;;;1.20;;
62654;SDS011;48717;55.556;37.816;2024-01-11T05:58:22;2.08;;;1.25;;
62654;SDS011;48717;55.556;37.816;2024-01-11T06:00:49;1.95;;;1.13;;
62654;SDS011;48717;55.556;37.816;2024-01-11T06:03:16;2.33;;;1.35;;
62654;SDS011;48717;55.556;37.816;2024-01-11T06:05:44;1.73;;;1.50;;
62654;SDS011;48717;55.556;37.816;2024-01-11T06:08:11;3.13;;;1.55;;
62654;SDS011;48717;55.556;37.816;2024-01-11T06:10:39;3.75;;;1.50;;
62654;SDS011;48717;55.556;37.816;2024-01-11T06:13:06;6.72;;;1.55;;
62654;SDS011;48717;55.556;37.816;2024-01-11T06:15:35;1.75;;;1.58;;
62654;SDS011;48717;55.556;37.816;2024-01-11T06:18:02;3.58;;;1.50;;
62654;SDS011;48717;55.556;37.816;2024-01-11T06:26:14;2.38;;;1.77;;
62654;SDS011;48717;55.556;37.816;2024-01-11T06:28:41;4.53;;;1.65;;
62654;SDS011;48717;55.556;37.816;2024-01-11T06:31:11;2.40;;;1.70;;
62654;SDS011;48717;55.556;37.816;2024-01-11T06:33:39;2.05;;;1.40;;
62654;SDS011;48717;55.556;37.816;2024-01-11T06:36:06;2.00;;;1.38;;
62654;SDS011;48717;55.556;37.816;2024-01-11T06:38:37;3.75;;;1.90;;
62654;SDS011;48717;55.556;37.816;2024-01-11T06:41:05;2.53;;;1.58;;
62654;SDS011;48717;55.556;37.816;2024-01-11T06:43:32;1.63;;;1.38;;
62654;SDS011;48717;55.556;37.816;2024-01-11T06:46:06;1.95;;;1.60;;
62654;SDS011;48717;55.556;37.816;2024-01-11T06:48:33;2.75;;;1.63;;
62654;SDS011;48717;55.556;37.816;2024-01-11T06:51:02;2.95;;;1.30;;
62654;SDS011;48717;55.556;37.816;2024-01-11T06:53:30;3.50;;;1.58;;
62654;SDS011;48717;55.556;37.816;2024-01-11T06:55:57;1.02;;;0.80;;
62654;SDS011;48717;55.556;37.816;2024-01-11T06:58:24;2.22;;;1.50;;
62654;SDS011;48717;55.556;37.816;2024-01-11T07:00:51;5.00;;;1.60;;
62654;SDS011;48717;55.556;37.816;2024-01-11T07:03:21;3.58;;;1.50;;
62654;SDS011;48717;55.556;37.816;2024-01-11T07:05:48;2.67;;;1.70;;
62654;SDS011;48717;55.556;37.816;2024-01-11T07:08:15;3.97;;;1.92;;
62654;SDS011;48717;55.556;37.816;2024-01-11T07:10:43;6.88;;;3.00;;
62654;SDS011;48717;55.556;37.816;2024-01-11T07:13:10;1.75;;;1.10;;
62654;SDS011;48717;55.556;37.816;2024-01-11T07:15:38;5.05;;;1.67;;
62654;SDS011;48717;55.556;37.816;2024-01-11T07:18:05;5.53;;;1.88;;
62654;SDS011;48717;55.556;37.816;2024-01-11T07:20:33;1.20;;;0.80;;
62654;SDS011;48717;55.556;37.816;2024-01-11T07:23:01;2.67;;;1.60;;
62654;SDS011;48717;55.556;37.816;2024-01-11T07:25:31;5.47;;;3.00;;
62654;SDS011;48717;55.556;37.816;2024-01-11T07:27:58;3.65;;;1.55;;
62654;SDS011;48717;55.556;37.816;2024-01-11T07:30:26;2.80;;;1.40;;
62654;SDS011;48717;55.556;37.816;2024-01-11T07:32:53;3.95;;;1.67;;
62654;SDS011;48717;55.556;37.816;2024-01-11T07:35:21;3.58;;;1.58;;
62654;SDS011;48717;55.556;37.816;2024-01-11T07:37:49;1.30;;;1.20;;
62654;SDS011;48717;55.556;37.816;2024-01-11T07:40:16;2.38;;;1.52;;
62654;SDS011;48717;55.556;37.816;2024-01-11T07:42:44;4.38;;;2.33;;
62654;SDS011;48717;55.556;37.816;2024-01-11T07:45:12;4.75;;;1.80;;
62654;SDS011;48717;55.556;37.816;2024-01-11T07:47:40;3.60;;;1.60;;
62654;SDS011;48717;55.556;37.816;2024-01-11T07:50:08;2.50;;;1.50;;
62654;SDS011;48717;55.556;37.816;2024-01-11T07:52:39;1.85;;;1.27;;
62654;SDS011;48717;55.556;37.816;2024-01-11T07:55:09;1.50;;;1.15;;
62654;SDS011;48717;55.556;37.816;2024-01-11T07:57:39;2.42;;;1.20;;
62654;SDS011;48717;55.556;37.816;2024-01-11T08:00:07;2.05;;;1.52;;
62654;SDS011;48717;55.556;37.816;2024-01-11T08:02:39;3.30;;;1.35;;
62654;SDS011;48717;55.556;37.816;2024-01-11T08:05:07;3.88;;;1.65;;
62654;SDS011;48717;55.556;37.816;2024-01-11T08:07:35;2.47;;;1.30;;
62654;SDS011;48717;55.556;37.816;2024-01-11T08:10:03;1.75;;;1.30;;
62654;SDS011;48717;55.556;37.816;2024-01-11T08:12:31;2.35;;;1.35;;
62654;SDS011;48717;55.556;37.816;2024-01-11T08:14:58;3.92;;;1.40;;
62654;SDS011;48717;55.556;37.816;2024-01-11T08:17:25;1.23;;;1.05;;
62654;SDS011;48717;55.556;37.816;2024-01-11T08:19:53;8.60;;;1.40;;
62654;SDS011;48717;55.556;37.816;2024-01-11T08:22:22;3.45;;;1.27;;
62654;SDS011;48717;55.556;37.816;2024-01-11T08:24:53;0.80;;;0.80;;
62654;SDS011;48717;55.556;37.816;2024-01-11T08:27:21;3.55;;;1.48;;
62654;SDS011;48717;55.556;37.816;2024-01-11T08:29:50;2.15;;;1.08;;
62654;SDS011;48717;55.556;37.816;2024-01-11T08:32:17;4.65;;;1.60;;
62654;SDS011;48717;55.556;37.816;2024-01-11T08:34:57;4.07;;;1.25;;
62654;SDS011;48717;55.556;37.816;2024-01-11T08:37:26;1.58;;;1.08;;
62654;SDS011;48717;55.556;37.816;2024-01-11T08:39:54;2.08;;;1.30;;
62654;SDS011;48717;55.556;37.816;2024-01-11T08:42:21;2.90;;;1.75;;
62654;SDS011;48717;55.556;37.816;2024-01-11T08:44:48;3.35;;;1.30;;
62654;SDS011;48717;55.556;37.816;2024-01-11T08:47:15;7.63;;;1.30;;
62654;SDS011;48717;55.556;37.816;2024-01-11T08:49:43;1.70;;;1.25;;
62654;SDS011;48717;55.556;37.816;2024-01-11T08:52:11;5.00;;;1.70;;
62654;SDS011;48717;55.556;37.816;2024-01-11T08:54:38;2.65;;;1.55;;
62654;SDS011;48717;55.556;37.816;2024-01-11T08:57:06;2.33;;;1.25;;
62654;SDS011;48717;55.556;37.816;2024-01-11T08:59:33;3.30;;;1.60;;
62654;SDS011;48717;55.556;37.816;2024-01-11T09:02:21;5.38;;;1.80;;
62654;SDS011;48717;55.556;37.816;2024-01-11T09:04:49;2.95;;;1.70;;
62654;SDS011;48717;55.556;37.816;2024-01-11T09:07:17;8.48;;;3.33;;
62654;SDS011;48717;55.556;37.816;2024-01-11T09:09:44;5.22;;;2.65;;
62654;SDS011;48717;55.556;37.816;2024-01-11T09:12:22;4.25;;;1.95;;
62654;SDS011;48717;55.556;37.816;2024-01-11T09:14:49;3.13;;;1.10;;
62654;SDS011;48717;55.556;37.816;2024-01-11T09:17:17;2.53;;;1.90;;
62654;SDS011;48717;55.556;37.816;2024-01-11T09:19:44;9.82;;;3.95;;
62654;SDS011;48717;55.556;37.816;2024-01-11T09:22:11;2.03;;;1.50;;
62654;SDS011;48717;55.556;37.816;2024-01-11T09:24:39;2.45;;;1.73;;
62654;SDS011;48717;55.556;37.816;2024-01-11T09:27:06;2.88;;;1.23;;
62654;SDS011;48717;55.556;37.816;2024-01-11T09:29:33;1.33;;;1.23;;
62654;SDS011;48717;55.556;37.816;2024-01-11T09:32:01;0.70;;;0.70;;
62654;SDS011;48717;55.556;37.816;2024-01-11T09:34:29;2.13;;;1.20;;
62654;SDS011;48717;55.556;37.816;2024-01-11T09:36:58;3.30;;;1.30;;
62654;SDS011;48717;55.556;37.816;2024-01-11T09:39:26;1.48;;;1.23;;
62654;SDS011;48717;55.556;37.816;2024-01-11T09:42:06;4.53;;;1.92;;
62654;SDS011;48717;55.556;37.816;2024-01-11T09:44:38;2.35;;;1.70;;
62654;SDS011;48717;55.556;37.816;2024-01-11T09:47:07;2.85;;;1.27;;
62654;SDS011;48717;55.556;37.816;2024-01-11T09:49:41;1.85;;;1.30;;
62654;SDS011;48717;55.556;37.816;2024-01-11T09:52:12;3.45;;;1.27;;
62654;SDS011;48717;55.556;37.816;2024-01-11T09:54:42;1.88;;;1.25;;
62654;SDS011;48717;55.556;37.816;2024-01-11T09:57:09;2.40;;;1.60;;
62654;SDS011;48717;55.556;37.816;2024-01-11T09:59:37;2.60;;;1.83;;
62654;SDS011;48717;55.556;37.816;2024-01-11T10:02:05;3.30;;;1.83;;
62654;SDS011;48717;55.556;37.816;2024-01-11T10:04:36;2.67;;;1.40;;
62654;SDS011;48717;55.556;37.816;2024-01-11T10:07:05;3.92;;;1.88;;
62654;SDS011;48717;55.556;37.816;2024-01-11T10:09:34;3.08;;;1.38;;
62654;SDS011;48717;55.556;37.816;2024-01-11T10:12:01;3.85;;;2.17;;
62654;SDS011;48717;55.556;37.816;2024-01-11T10:14:30;5.97;;;2.17;;
62654;SDS011;48717;55.556;37.816;2024-01-11T10:16:58;3.83;;;1.60;;
62654;SDS011;48717;55.556;37.816;2024-01-11T10:19:26;4.15;;;2.13;;
62654;SDS011;48717;55.556;37.816;2024-01-11T10:21:53;3.97;;;1.77;;
62654;SDS011;48717;55.556;37.816;2024-01-11T10:24:20;4.15;;;1.50;;
62654;SDS011;48717;55.556;37.816;2024-01-11T10:26:48;5.15;;;1.30;;
62654;SDS011;48717;55.556;37.816;2024-01-11T10:29:16;4.45;;;1.55;;
62654;SDS011;48717;55.556;37.816;2024-01-11T10:31:45;3.00;;;1.48;;
62654;SDS011;48717;55.556;37.816;2024-01-11T10:34:13;2.65;;;1.45;;
62654;SDS011;48717;55.556;37.816;2024-01-11T10:36:41;2.17;;;1.30;;
62654;SDS011;48717;55.556;37.816;2024-01-11T10:39:09;4.28;;;1.90;;
62654;SDS011;48717;55.556;37.816;2024-01-11T10:41:40;3.90;;;1.60;;
62654;SDS011;48717;55.556;37.816;2024-01-11T10:44:13;2.83;;;1.88;;
62654;SDS011;48717;55.556;37.816;2024-01-11T10:46:49;2.92;;;1.85;;
62654;SDS011;48717;55.556;37.816;2024-01-11T10:49:18;6.50;;;1.58;;
62654;SDS011;48717;55.556;37.816;2024-01-11T10:51:49;3.45;;;1.70;;
62654;SDS011;48717;55.556;37.816;2024-01-11T10:54:23;1.98;;;1.20;;
62654;SDS011;48717;55.556;37.816;2024-01-11T10:56:50;2.53;;;1.35;;
62654;SDS011;48717;55.556;37.816;2024-01-11T10:59:19;3.15;;;1.60;;
62654;SDS011;48717;55.556;37.816;2024-01-11T11:01:52;2.80;;;1.77;;
62654;SDS011;48717;55.556;37.816;2024-01-11T11:04:24;2.58;;;1.08;;
62654;SDS011;48717;55.556;37.816;2024-01-11T11:06:55;2.22;;;1.45;;
62654;SDS011;48717;55.556;37.816;2024-01-11T11:09:25;3.05;;;1.45;;
62654;SDS011;48717;55.556;37.816;2024-01-11T11:11:55;1.92;;;1.30;;
62654;SDS011;48717;55.556;37.816;2024-01-11T11:14:25;2.28;;;1.40;;
62654;SDS011;48717;55.556;37.816;2024-01-11T11:16:52;1.25;;;1.15;;
62654;SDS011;48717;55.556;37.816;2024-01-11T11:19:20;1.52;;;1.10;;
62654;SDS011;48717;55.556;37.816;2024-01-11T11:21:48;2.42;;;1.20;;
62654;SDS011;48717;55.556;37.816;2024-01-11T11:24:17;1.23;;;1.00;;
62654;SDS011;48717;55.556;37.816;2024-01-11T11:26:45;1.98;;;1.15;;
62654;SDS011;48717;55.556;37.816;2024-01-11T11:29:14;1.63;;;0.95;;
62654;SDS011;48717;55.556;37.816;2024-01-11T11:31:43;2.10;;;1.00;;
62654;SDS011;48717;55.556;37.816;2024-01-11T11:34:20;2.72;;;1.30;;
62654;SDS011;48717;55.556;37.816;2024-01-11T11:37:06;2.38;;;1.50;;
62654;SDS011;48717;55.556;37.816;2024-01-11T11:39:33;2.47;;;1.40;;
62654;SDS011;48717;55.556;37.816;2024-01-11T11:42:06;2.50;;;1.33;;
62654;SDS011;48717;55.556;37.816;2024-01-11T11:44:42;1.55;;;1.15;;
62654;SDS011;48717;55.556;37.816;2024-01-11T11:47:19;2.55;;;1.60;;
62654;SDS011;48717;55.556;37.816;2024-01-11T11:52:32;2.00;;;1.50;;
62654;SDS011;48717;55.556;37.816;2024-01-11T11:55:03;2.53;;;1.50;;
62654;SDS011;48717;55.556;37.816;2024-01-11T11:57:32;2.10;;;1.38;;
62654;SDS011;48717;55.556;37.816;2024-01-11T12:00:00;4.03;;;1.60;;
62654;SDS011;48717;55.556;37.816;2024-01-11T12:02:37;2.47;;;1.27;;
62654;SDS011;48717;55.556;37.816;2024-01-11T12:05:06;2.17;;;0.90;;
62654;SDS011;48717;55.556;37.816;2024-01-11T12:07:34;2.60;;;1.50;;
62654;SDS011;48717;55.556;37.816;2024-01-11T12:10:02;2.08;;;1.45;;
62654;SDS011;48717;55.556;37.816;2024-01-11T12:12:30;1.70;;;1.52;;
62654;SDS011;48717;55.556;37.816;2024-01-11T12:14:58;2.22;;;1.40;;
62654;SDS011;48717;55.556;37.816;2024-01-11T12:17:27;0.77;;;0.60;;
62654;SDS011;48717;55.556;37.816;2024-01-11T12:19:55;1.98;;;1.50;;
62654;SDS011;48717;55.556;37.816;2024-01-11T12:22:42;1.45;;;1.23;;
62654;SDS011;48717;55.556;37.816;2024-01-11T12:25:10;2.13;;;1.48;;
62654;SDS011;48717;55.556;37.816;2024-01-11T12:27:39;2.35;;;0.65;;
62654;SDS011;48717;55.556;37.816;2024-01-11T12:30:07;2.22;;;1.33;;
62654;SDS011;48717;55.556;37.816;2024-01-11T12:32:38;1.63;;;1.27;;
62654;SDS011;48717;55.556;37.816;2024-01-11T12:35:07;3.15;;;1.55;;
62654;SDS011;48717;55.556;37.816;2024-01-11T12:37:35;2.20;;;1.20;;
62654;SDS011;48717;55.556;37.816;2024-01-11T12:40:03;3.80;;;1.48;;
62654;SDS011;48717;55.556;37.816;2024-01-11T12:42:34;3.78;;;2.05;;
62654;SDS011;48717;55.556;37.816;2024-01-11T12:45:02;3.60;;;2.00;;
62654;SDS011;48717;55.556;37.816;2024-01-11T12:47:30;2.65;;;1.20;;
62654;SDS011;48717;55.556;37.816;2024-01-11T12:49:58;2.75;;;1.40;;
62654;SDS011;48717;55.556;37.816;2024-01-11T12:52:29;2.65;;;1.42;;
62654;SDS011;48717;55.556;37.816;2024-01-11T12:54:57;2.42;;;1.45;;
62654;SDS011;48717;55.556;37.816;2024-01-11T12:57:25;3.20;;;0.98;;
62654;SDS011;48717;55.556;37.816;2024-01-11T12:59:53;3.00;;;1.60;;
62654;SDS011;48717;55.556;37.816;2024-01-11T13:02:21;5.60;;;1.67;;
62654;SDS011;48717;55.556;37.816;2024-01-11T13:04:49;1.98;;;0.93;;
62654;SDS011;48717;55.556;37.816;2024-01-11T13:07:17;0.98;;;0.77;;
62654;SDS011;48717;55.556;37.816;2024-01-11T13:09:46;2.55;;;1.40;;
62654;SDS011;48717;55.556;37.816;2024-01-11T13:12:14;6.50;;;1.95;;
62654;SDS011;48717;55.556;37.816;2024-01-11T13:14:41;3.47;;;1.63;;
62654;SDS011;48717;55.556;37.816;2024-01-11T13:17:08;2.25;;;1.52;;
62654;SDS011;48717;55.556;37.816;2024-01-11T13:19:36;3.65;;;1.70;;
62654;SDS011;48717;55.556;37.816;2024-01-11T13:22:03;2.55;;;1.17;;
62654;SDS011;48717;55.556;37.816;2024-01-11T13:24:30;2.00;;;1.17;;
62654;SDS011;48717;55.556;37.816;2024-01-11T13:26:57;3.15;;;1.55;;
62654;SDS011;48717;55.556;37.816;2024-01-11T13:29:26;2.20;;;1.40;;
62654;SDS011;48717;55.556;37.816;2024-01-11T13:31:54;2.67;;;1.60;;
62654;SDS011;48717;55.556;37.816;2024-01-11T13:34:21;2.92;;;1.75;;
62654;SDS011;48717;55.556;37.816;2024-01-11T13:36:48;7.15;;;1.38;;
62654;SDS011;48717;55.556;37.816;2024-01-11T13:39:16;3.75;;;0.90;;
62654;SDS011;48717;55.556;37.816;2024-01-11T13:41:45;1.20;;;1.05;;
62654;SDS011;48717;55.556;37.816;2024-01-11T13:44:13;2.63;;;1.30;;
62654;SDS011;48717;55.556;37.816;2024-01-11T13:46:40;2.15;;;1.17;;
62654;SDS011;48717;55.556;37.816;2024-01-11T13:49:08;1.95;;;1.08;;
62654;SDS011;48717;55.556;37.816;2024-01-11T13:51:36;5.10;;;1.83;;
62654;SDS011;48717;55.556;37.816;2024-01-11T13:54:19;2.88;;;1.20;;
62654;SDS011;48717;55.556;37.816;2024-01-11T13:56:49;1.33;;;1.10;;
62654;SDS011;48717;55.556;37.816;2024-01-11T13:59:18;5.85;;;2.00;;
62654;SDS011;48717;55.556;37.816;2024-01-11T14:01:47;3.28;;;1.33;;
62654;SDS011;48717;55.556;37.816;2024-01-11T14:04:14;6.10;;;1.63;;
62654;SDS011;48717;55.556;37.816;2024-01-11T14:06:41;2.00;;;1.27;;
62654;SDS011;48717;55.556;37.816;2024-01-11T14:09:09;4.57;;;1.80;;
62654;SDS011;48717;55.556;37.816;2024-01-11T14:11:37;3.15;;;1.05;;
62654;SDS011;48717;55.556;37.816;2024-01-11T14:14:04;6.25;;;1.90;;
62654;SDS011;48717;55.556;37.816;2024-01-11T14:16:32;3.72;;;2.10;;
62654;SDS011;48717;55.556;37.816;2024-01-11T14:19:00;4.28;;;2.15;;
62654;SDS011;48717;55.556;37.816;2024-01-11T14:21:28;4.97;;;2.63;;
62654;SDS011;48717;55.556;37.816;2024-01-11T14:23:55;3.88;;;1.70;;
62654;SDS011;48717;55.556;37.816;2024-01-11T14:26:23;2.72;;;1.55;;
62654;SDS011;48717;55.556;37.816;2024-01-11T14:28:50;4.68;;;2.83;;
62654;SDS011;48717;55.556;37.816;2024-01-11T14:31:18;6.78;;;2.72;;
62654;SDS011;48717;55.556;37.816;2024-01-11T14:33:45;4.43;;;2.55;;
62654;SDS011;48717;55.556;37.816;2024-01-11T14:36:15;3.22;;;2.20;;
62654;SDS011;48717;55.556;37.816;2024-01-11T14:38:43;5.60;;;2.13;;
62654;SDS011;48717;55.556;37.816;2024-01-11T14:41:10;6.00;;;0.80;;
62654;SDS011;48717;55.556;37.816;2024-01-11T14:43:38;3.30;;;2.10;;
62654;SDS011;48717;55.556;37.816;2024-01-11T14:46:05;2.60;;;1.65;;
62654;SDS011;48717;55.556;37.816;2024-01-11T14:48:36;2.90;;;1.70;;
62654;SDS011;48717;55.556;37.816;2024-01-11T14:51:04;2.83;;;1.70;;
62654;SDS011;48717;55.556;37.816;2024-01-11T14:53:32;7.78;;;2.28;;
62654;SDS011;48717;55.556;37.816;2024-01-11T14:55:59;2.83;;;1.60;;
62654;SDS011;48717;55.556;37.816;2024-01-11T14:58:27;4.63;;;2.13;;